Time;durP1;ratioP1;P1;durP2;ratioP2;P2;SDS_P1;SDS_P2;PMS_P1;PMS_P2;Temp;Humidity;BMP_temperature;BMP_pressure;BME280_temperature;BME280_humidity;BME280_pressure;Samples;Min_cycle;Max_cycle;Signal;HPM_P1;HPM_P2
2022/12/04 00:00:50;;;;;;;75.13;41.53;;;;;;;;;;4997725;28;20304;-79
2022/12/04 00:03:16;;;;;;;76.90;43.97;;;;;;;;;;4977883;28;20186;-79
2022/12/04 00:05:42;;;;;;;73.50;41.93;;;;;;;;;;4993568;28;20183;-79
2022/12/04 00:08:08;;;;;;;76.00;41.90;;;;;;;;;;4994768;28;20174;-80
2022/12/04 00:10:34;;;;;;;76.13;42.47;;;;;;;;;;4977687;28;20286;-80
2022/12/04 00:13:00;;;;;;;75.77;41.87;;;;;;;;;;4994268;28;20230;-80
2022/12/04 00:15:26;;;;;;;75.77;41.97;;;;;;;;;;4993481;28;20178;-79
2022/12/04 00:17:53;;;;;;;74.50;41.80;;;;;;;;;;4993441;28;20194;-79
2022/12/04 00:20:19;;;;;;;71.87;42.50;;;;;;;;;;4993434;28;20213;-79
2022/12/04 00:22:45;;;;;;;80.00;44.27;;;;;;;;;;4977878;28;20216;-79
2022/12/04 00:25:11;;;;;;;76.30;43.97;;;;;;;;;;4994385;28;20218;-79
2022/12/04 00:27:37;;;;;;;76.63;42.63;;;;;;;;;;4980310;28;20186;-79
2022/12/04 00:30:03;;;;;;;76.80;42.53;;;;;;;;;;5012524;28;20199;-79
2022/12/04 00:32:29;;;;;;;75.60;42.87;;;;;;;;;;5014154;28;20189;-79
2022/12/04 00:34:55;;;;;;;74.00;42.10;;;;;;;;;;5000377;28;20198;-79
2022/12/04 00:37:21;;;;;;;73.47;41.30;;;;;;;;;;5011398;28;20194;-79
2022/12/04 00:39:47;;;;;;;76.07;42.90;;;;;;;;;;5007080;28;20255;-80
2022/12/04 00:42:13;;;;;;;74.63;42.43;;;;;;;;;;4996465;28;20186;-79
2022/12/04 00:44:39;;;;;;;74.67;42.57;;;;;;;;;;5015054;28;20235;-79
2022/12/04 00:47:05;;;;;;;73.87;42.60;;;;;;;;;;5008409;28;20178;-79
2022/12/04 00:49:31;;;;;;;70.53;40.70;;;;;;;;;;4991576;28;20232;-79
2022/12/04 00:51:57;;;;;;;76.23;43.67;;;;;;;;;;5007548;28;20235;-79
2022/12/04 00:54:23;;;;;;;74.37;42.07;;;;;;;;;;5006410;28;20217;-79
2022/12/04 00:56:49;;;;;;;73.17;41.77;;;;;;;;;;4991402;28;20184;-79
2022/12/04 00:59:15;;;;;;;77.53;42.93;;;;;;;;;;5005036;28;20182;-79
2022/12/04 01:01:41;;;;;;;74.97;43.53;;;;;;;;;;5007816;28;20213;-79
2022/12/04 01:04:07;;;;;;;75.77;44.00;;;;;;;;;;4997481;28;20188;-79
2022/12/04 01:06:34;;;;;;;76.57;43.80;;;;;;;;;;4992768;28;20186;-79
2022/12/04 01:09:01;;;;;;;76.33;43.57;;;;;;;;;;5002630;28;20182;-79
2022/12/04 01:11:27;;;;;;;76.90;43.20;;;;;;;;;;5008977;28;20205;-79
2022/12/04 01:13:53;;;;;;;73.30;42.90;;;;;;;;;;5006431;28;20180;-81
2022/12/04 01:16:30;;;;;;;79.00;43.70;;;;;;;;;;4998162;28;20264;-81
2022/12/04 01:18:56;;;;;;;77.23;43.83;;;;;;;;;;5007617;28;20193;-81
2022/12/04 01:21:22;;;;;;;76.93;42.73;;;;;;;;;;5004388;28;20206;-81
2022/12/04 01:23:48;;;;;;;72.87;41.00;;;;;;;;;;5005371;28;20216;-81
2022/12/04 01:26:15;;;;;;;72.90;42.97;;;;;;;;;;5003200;28;20201;-80
2022/12/04 01:28:41;;;;;;;78.83;42.83;;;;;;;;;;5005035;28;20178;-81
2022/12/04 01:31:09;;;;;;;73.73;43.17;;;;;;;;;;5007326;28;20182;-80
2022/12/04 01:33:36;;;;;;;72.00;41.73;;;;;;;;;;5004401;28;20190;-79
2022/12/04 01:36:03;;;;;;;75.10;42.20;;;;;;;;;;5007552;28;20181;-79
2022/12/04 01:38:29;;;;;;;70.33;41.73;;;;;;;;;;5006046;28;20182;-79
2022/12/04 01:40:56;;;;;;;71.53;42.33;;;;;;;;;;5004698;28;20209;-80
2022/12/04 01:43:22;;;;;;;78.33;44.20;;;;;;;;;;5006260;28;20244;-79
2022/12/04 01:45:55;;;;;;;74.23;42.20;;;;;;;;;;4996598;28;20221;-79
2022/12/04 01:48:30;;;;;;;75.03;42.47;;;;;;;;;;5007462;28;20188;-80
2022/12/04 01:51:02;;;;;;;76.77;44.23;;;;;;;;;;5006874;28;20192;-80
2022/12/04 01:53:29;;;;;;;77.57;43.33;;;;;;;;;;5005808;28;20174;-80
2022/12/04 01:55:55;;;;;;;70.30;41.80;;;;;;;;;;5005620;28;20232;-81
2022/12/04 01:58:24;;;;;;;78.27;44.70;;;;;;;;;;4987356;28;20186;-81
2022/12/04 02:00:52;;;;;;;70.60;42.13;;;;;;;;;;5004108;28;20206;-80
2022/12/04 02:03:18;;;;;;;74.90;43.10;;;;;;;;;;5004935;28;20189;-80
2022/12/04 02:05:44;;;;;;;79.30;43.40;;;;;;;;;;5005496;28;20189;-80
2022/12/04 02:08:10;;;;;;;75.87;43.60;;;;;;;;;;4988862;28;20193;-81
2022/12/04 02:10:51;;;;;;;74.47;43.60;;;;;;;;;;5005182;28;20259;-81
2022/12/04 02:13:22;;;;;;;73.90;43.67;;;;;;;;;;5004619;28;20235;-80
2022/12/04 02:15:55;;;;;;;73.07;42.57;;;;;;;;;;5003992;28;20192;-80
2022/12/04 02:18:35;;;;;;;76.00;43.23;;;;;;;;;;5002600;28;20188;-80
2022/12/04 02:21:07;;;;;;;78.73;44.10;;;;;;;;;;5008024;28;20292;-80
2022/12/04 02:24:05;;;;;;;77.70;44.13;;;;;;;;;;5008079;28;20178;-80
2022/12/04 02:26:37;;;;;;;74.23;42.07;;;;;;;;;;4978193;28;20196;-80
2022/12/04 02:29:22;;;;;;;76.80;43.90;;;;;;;;;;5004906;28;20223;-80
2022/12/04 02:31:55;;;;;;;72.00;42.47;;;;;;;;;;5008396;28;20177;-80
2022/12/04 02:34:40;;;;;;;76.00;42.47;;;;;;;;;;4995747;28;20165;-80
2022/12/04 02:37:09;;;;;;;75.30;43.57;;;;;;;;;;4999449;28;20172;-80
2022/12/04 02:39:50;;;;;;;69.67;42.10;;;;;;;;;;4997999;28;20178;-80
2022/12/04 02:42:20;;;;;;;75.30;43.50;;;;;;;;;;5003740;28;20185;-80
2022/12/04 02:44:46;;;;;;;75.23;43.77;;;;;;;;;;5011251;28;20185;-80
2022/12/04 02:47:14;;;;;;;71.63;43.17;;;;;;;;;;5001106;28;20240;-80
2022/12/04 02:49:43;;;;;;;75.70;43.67;;;;;;;;;;5002360;28;20190;-79
2022/12/04 02:52:12;;;;;;;73.07;44.03;;;;;;;;;;5003323;28;20218;-79
2022/12/04 02:54:42;;;;;;;76.07;42.57;;;;;;;;;;5005317;28;20193;-79
2022/12/04 02:57:12;;;;;;;75.50;43.50;;;;;;;;;;5005094;28;20217;-79
2022/12/04 02:59:40;;;;;;;77.53;43.50;;;;;;;;;;4998524;28;20197;-79
2022/12/04 03:02:11;;;;;;;76.00;44.13;;;;;;;;;;5001632;28;20189;-79
2022/12/04 03:04:38;;;;;;;75.03;43.97;;;;;;;;;;5029325;28;20185;-79
2022/12/04 03:07:13;;;;;;;76.83;43.30;;;;;;;;;;5014166;28;20192;-80
2022/12/04 03:09:42;;;;;;;74.77;42.40;;;;;;;;;;5005966;28;20184;-81
2022/12/04 03:12:08;;;;;;;75.13;43.37;;;;;;;;;;5000032;28;20225;-81
2022/12/04 03:14:36;;;;;;;74.57;44.37;;;;;;;;;;4993924;28;20181;-81
2022/12/04 03:17:05;;;;;;;76.93;43.53;;;;;;;;;;5007083;28;20192;-80
2022/12/04 03:19:36;;;;;;;75.27;42.97;;;;;;;;;;5013209;28;20185;-80
2022/12/04 03:22:04;;;;;;;73.30;42.33;;;;;;;;;;5013694;28;20185;-81
2022/12/04 03:24:33;;;;;;;71.80;42.33;;;;;;;;;;5012853;28;20181;-81
2022/12/04 03:27:21;;;;;;;71.67;42.07;;;;;;;;;;5013746;28;20196;-80
2022/12/04 03:30:01;;;;;;;71.47;41.17;;;;;;;;;;5027752;28;20193;-81
2022/12/04 03:32:46;;;;;;;72.47;41.77;;;;;;;;;;5004006;28;20252;-80
2022/12/04 03:35:12;;;;;;;73.83;42.13;;;;;;;;;;5013584;28;20264;-80
2022/12/04 03:37:39;;;;;;;74.60;44.07;;;;;;;;;;5013919;28;20181;-81
2022/12/04 03:40:26;;;;;;;72.77;43.13;;;;;;;;;;5013825;28;20213;-81
2022/12/04 03:42:55;;;;;;;69.83;42.60;;;;;;;;;;5012842;28;20191;-80
2022/12/04 03:45:21;;;;;;;76.50;43.77;;;;;;;;;;4998338;28;20235;-80
2022/12/04 03:47:52;;;;;;;72.00;42.93;;;;;;;;;;5011699;28;20193;-79
2022/12/04 03:50:28;;;;;;;69.63;43.03;;;;;;;;;;5029360;28;20268;-79
2022/12/04 03:52:54;;;;;;;72.43;42.23;;;;;;;;;;5012974;28;20212;-79
2022/12/04 03:55:26;;;;;;;69.50;42.60;;;;;;;;;;5013011;28;20181;-79
2022/12/04 03:57:56;;;;;;;74.33;43.33;;;;;;;;;;5000366;28;20280;-79
2022/12/04 04:00:22;;;;;;;70.57;42.70;;;;;;;;;;5000711;28;20209;-79
2022/12/04 04:02:54;;;;;;;70.33;42.23;;;;;;;;;;5013493;28;20177;-80
2022/12/04 04:05:22;;;;;;;71.90;44.33;;;;;;;;;;5012945;28;20269;-80
2022/12/04 04:07:52;;;;;;;78.10;43.73;;;;;;;;;;5016452;28;20247;-80
2022/12/04 04:10:20;;;;;;;73.43;41.53;;;;;;;;;;5016724;28;20184;-80
2022/12/04 04:24:13;;;;;;;68.23;41.23;;;;;;;;;;5014253;28;20240;-80
2022/12/04 04:26:39;;;;;;;73.30;41.50;;;;;;;;;;5025090;28;20224;-79
2022/12/04 04:29:05;;;;;;;73.73;43.10;;;;;;;;;;4997983;28;20178;-79
2022/12/04 04:31:36;;;;;;;70.63;42.43;;;;;;;;;;5013026;28;20251;-79
2022/12/04 04:34:10;;;;;;;73.10;42.13;;;;;;;;;;5001070;28;20227;-79
2022/12/04 04:36:36;;;;;;;70.20;42.60;;;;;;;;;;5032728;28;20177;-80
2022/12/04 04:39:07;;;;;;;78.40;43.50;;;;;;;;;;5017369;28;20189;-81
2022/12/04 04:41:47;;;;;;;70.47;41.87;;;;;;;;;;5016322;28;20215;-80
2022/12/04 04:44:25;;;;;;;72.23;41.67;;;;;;;;;;5017412;28;20172;-80
2022/12/04 04:46:53;;;;;;;67.03;40.93;;;;;;;;;;5016151;28;20179;-80
2022/12/04 04:49:22;;;;;;;71.13;42.07;;;;;;;;;;5016154;28;20189;-80
2022/12/04 04:51:48;;;;;;;71.03;41.63;;;;;;;;;;5016088;28;20185;-79
2022/12/04 04:54:16;;;;;;;74.63;43.43;;;;;;;;;;5016296;28;20181;-79
2022/12/04 04:56:45;;;;;;;71.77;42.93;;;;;;;;;;5015887;28;20236;-79
2022/12/04 04:59:12;;;;;;;73.03;43.07;;;;;;;;;;5016719;28;20227;-79
2022/12/04 05:01:38;;;;;;;73.87;43.13;;;;;;;;;;5017164;28;20209;-79
2022/12/04 05:04:05;;;;;;;77.00;42.10;;;;;;;;;;5015517;28;20185;-79
2022/12/04 05:06:31;;;;;;;73.23;43.17;;;;;;;;;;5015857;28;20208;-78
2022/12/04 05:08:57;;;;;;;71.30;43.13;;;;;;;;;;5016388;28;20177;-79
2022/12/04 05:11:24;;;;;;;71.70;42.53;;;;;;;;;;5011148;28;20205;-80
2022/12/04 05:13:50;;;;;;;69.73;41.87;;;;;;;;;;5015781;28;20185;-80
2022/12/04 05:16:16;;;;;;;70.80;41.93;;;;;;;;;;4999347;28;20243;-80
2022/12/04 05:19:52;;;;;;;72.17;41.47;;;;;;;;;;5015315;28;20192;-80
2022/12/04 05:21:28;;;;;;;69.27;40.53;;;;;;;;;;5016355;28;20220;-80
2022/12/04 05:23:54;;;;;;;76.53;41.93;;;;;;;;;;5015825;28;20189;-80
2022/12/04 05:26:20;;;;;;;73.23;42.17;;;;;;;;;;5026619;22;20239;-79
2022/12/04 05:28:46;;;;;;;67.60;41.47;;;;;;;;;;5036808;28;20179;-79
2022/12/04 05:31:12;;;;;;;70.43;42.47;;;;;;;;;;5026147;28;20219;-79
2022/12/04 05:33:38;;;;;;;76.40;41.93;;;;;;;;;;4998734;28;20189;-79
2022/12/04 05:36:06;;;;;;;69.57;41.17;;;;;;;;;;4998680;28;20188;-79
2022/12/04 05:38:32;;;;;;;68.37;39.90;;;;;;;;;;5015858;28;20268;-79
2022/12/04 05:40:59;;;;;;;73.00;41.97;;;;;;;;;;5001288;28;20256;-79
2022/12/04 05:43:25;;;;;;;69.87;40.53;;;;;;;;;;5001842;28;20180;-79
2022/12/04 05:45:51;;;;;;;67.77;40.47;;;;;;;;;;5001813;28;20216;-79
2022/12/04 05:48:17;;;;;;;64.70;39.13;;;;;;;;;;4997213;28;20201;-79
2022/12/04 05:50:43;;;;;;;67.70;41.20;;;;;;;;;;5014782;28;20217;-80
2022/12/04 05:53:09;;;;;;;68.37;38.90;;;;;;;;;;4982076;28;20189;-80
2022/12/04 05:55:35;;;;;;;65.90;39.57;;;;;;;;;;4982031;28;20284;-80
2022/12/04 05:58:01;;;;;;;67.33;39.33;;;;;;;;;;5016399;28;20216;-79
2022/12/04 06:00:27;;;;;;;67.37;39.73;;;;;;;;;;5017992;28;20209;-79
2022/12/04 06:02:53;;;;;;;66.10;39.43;;;;;;;;;;5033123;28;20185;-79
2022/12/04 06:05:19;;;;;;;67.43;39.23;;;;;;;;;;5002963;28;21333;-79
2022/12/04 06:07:45;;;;;;;69.97;40.17;;;;;;;;;;5019494;28;20181;-79
2022/12/04 06:10:11;;;;;;;72.27;40.03;;;;;;;;;;5009098;28;20196;-79
2022/12/04 06:12:37;;;;;;;67.77;38.47;;;;;;;;;;5032800;28;20200;-79
2022/12/04 06:15:04;;;;;;;65.63;39.53;;;;;;;;;;5025034;28;20204;-79
2022/12/04 06:17:30;;;;;;;65.50;38.10;;;;;;;;;;5039088;28;20250;-79
2022/12/04 06:19:56;;;;;;;69.30;39.83;;;;;;;;;;5024320;28;20251;-79
2022/12/04 06:22:22;;;;;;;67.77;39.17;;;;;;;;;;5031596;28;20188;-79
2022/12/04 06:24:48;;;;;;;65.60;39.70;;;;;;;;;;5024815;28;20188;-79
2022/12/04 06:27:14;;;;;;;62.80;37.10;;;;;;;;;;5023849;28;20232;-80
2022/12/04 06:29:40;;;;;;;62.57;37.93;;;;;;;;;;5007337;28;20188;-80
2022/12/04 06:32:06;;;;;;;65.33;38.70;;;;;;;;;;5032947;28;20212;-80
2022/12/04 06:34:32;;;;;;;66.37;40.03;;;;;;;;;;5010536;28;20181;-79
2022/12/04 06:36:58;;;;;;;67.83;38.40;;;;;;;;;;5013123;28;20186;-79
2022/12/04 06:39:24;;;;;;;65.97;39.27;;;;;;;;;;5032512;28;20191;-79
2022/12/04 06:41:50;;;;;;;63.73;37.73;;;;;;;;;;5014825;28;20208;-79
2022/12/04 06:44:16;;;;;;;64.93;38.70;;;;;;;;;;5015520;28;20241;-79
2022/12/04 06:46:42;;;;;;;63.90;38.80;;;;;;;;;;5016545;28;20191;-79
2022/12/04 06:49:09;;;;;;;64.83;39.03;;;;;;;;;;5006302;28;20185;-79
2022/12/04 06:51:37;;;;;;;66.77;39.20;;;;;;;;;;5014422;28;20195;-79
2022/12/04 06:54:03;;;;;;;68.73;39.37;;;;;;;;;;5007180;28;20188;-79
2022/12/04 06:56:30;;;;;;;64.97;38.50;;;;;;;;;;5015616;28;20188;-79
2022/12/04 06:58:57;;;;;;;63.10;36.67;;;;;;;;;;5016770;28;20176;-79
2022/12/04 07:01:25;;;;;;;64.63;38.50;;;;;;;;;;5033859;28;20208;-79
2022/12/04 07:03:51;;;;;;;68.37;38.63;;;;;;;;;;5016760;28;20173;-79
2022/12/04 07:06:19;;;;;;;64.70;36.00;;;;;;;;;;5016694;28;20271;-80
2022/12/04 07:08:46;;;;;;;63.40;37.30;;;;;;;;;;5033809;28;20176;-80
2022/12/04 07:11:12;;;;;;;65.07;37.73;;;;;;;;;;5022865;28;20195;-80
2022/12/04 07:13:39;;;;;;;60.80;36.47;;;;;;;;;;5033370;28;20184;-80
2022/12/04 07:16:06;;;;;;;66.27;37.87;;;;;;;;;;5024544;28;20296;-79
2022/12/04 07:18:33;;;;;;;65.70;38.30;;;;;;;;;;5023314;28;20176;-79
2022/12/04 07:20:59;;;;;;;66.97;38.57;;;;;;;;;;5004665;28;20224;-80
2022/12/04 07:23:25;;;;;;;63.53;37.90;;;;;;;;;;5005643;28;20244;-80
2022/12/04 07:25:51;;;;;;;63.00;36.83;;;;;;;;;;5024122;28;20267;-81
2022/12/04 07:28:17;;;;;;;60.87;36.90;;;;;;;;;;5023913;28;20263;-81
2022/12/04 07:30:43;;;;;;;65.50;37.17;;;;;;;;;;5000474;28;20220;-80
2022/12/04 07:33:09;;;;;;;63.13;36.77;;;;;;;;;;5024451;28;20189;-80
2022/12/04 07:35:35;;;;;;;62.27;36.17;;;;;;;;;;5008073;28;20235;-80
2022/12/04 07:38:01;;;;;;;67.90;37.23;;;;;;;;;;5024156;28;20185;-80
2022/12/04 07:40:27;;;;;;;59.10;35.53;;;;;;;;;;5022186;28;20204;-81
2022/12/04 07:42:53;;;;;;;64.40;36.97;;;;;;;;;;5032201;28;20215;-81
2022/12/04 07:45:19;;;;;;;62.00;35.20;;;;;;;;;;5027937;28;20172;-80
2022/12/04 07:47:45;;;;;;;60.40;35.07;;;;;;;;;;5027073;28;20235;-80
2022/12/04 07:50:11;;;;;;;62.77;35.27;;;;;;;;;;5028203;28;20180;-80
2022/12/04 07:52:37;;;;;;;62.60;36.87;;;;;;;;;;5037307;28;20196;-81
2022/12/04 07:55:07;;;;;;;66.17;36.53;;;;;;;;;;5004975;28;20267;-79
2022/12/04 07:57:33;;;;;;;61.47;35.73;;;;;;;;;;5027728;28;20172;-79
2022/12/04 07:59:59;;;;;;;62.70;36.13;;;;;;;;;;5028051;28;20204;-79
2022/12/04 08:02:26;;;;;;;60.43;35.80;;;;;;;;;;5028495;28;20260;-79
2022/12/04 08:04:54;;;;;;;61.87;36.47;;;;;;;;;;5026902;28;20176;-79
2022/12/04 08:07:20;;;;;;;59.87;35.23;;;;;;;;;;5034470;28;20185;-79
2022/12/04 08:09:46;;;;;;;61.30;35.27;;;;;;;;;;5025045;28;20188;-79
2022/12/04 08:12:12;;;;;;;58.70;35.87;;;;;;;;;;5009871;28;20176;-80
2022/12/04 08:14:38;;;;;;;62.47;36.13;;;;;;;;;;5012758;28;20212;-80
2022/12/04 08:17:04;;;;;;;65.10;35.70;;;;;;;;;;5027377;28;20189;-79
2022/12/04 08:19:30;;;;;;;61.57;36.30;;;;;;;;;;5012065;28;20181;-80
2022/12/04 08:21:56;;;;;;;61.10;35.50;;;;;;;;;;5022401;28;20208;-80
2022/12/04 08:24:22;;;;;;;57.70;35.50;;;;;;;;;;5011161;28;20176;-80
2022/12/04 08:26:48;;;;;;;62.67;37.13;;;;;;;;;;5027540;28;20235;-80
2022/12/04 08:29:14;;;;;;;65.07;35.93;;;;;;;;;;5026346;28;20204;-80
2022/12/04 08:31:40;;;;;;;58.63;34.83;;;;;;;;;;5027551;28;20210;-78
2022/12/04 08:34:07;;;;;;;64.57;36.63;;;;;;;;;;5036797;28;20180;-79
2022/12/04 08:36:33;;;;;;;63.57;35.67;;;;;;;;;;5036739;28;20180;-79
2022/12/04 08:38:59;;;;;;;60.83;35.33;;;;;;;;;;5011535;28;20212;-79
2022/12/04 08:41:26;;;;;;;64.00;36.70;;;;;;;;;;5010773;28;20200;-79
2022/12/04 08:43:56;;;;;;;60.83;35.93;;;;;;;;;;5025729;28;20223;-79
2022/12/04 08:46:23;;;;;;;64.27;35.93;;;;;;;;;;5020307;28;20202;-79
2022/12/04 08:48:49;;;;;;;64.33;35.83;;;;;;;;;;5036388;28;20173;-79
2022/12/04 08:51:25;;;;;;;60.37;34.83;;;;;;;;;;5023886;28;20181;-79
2022/12/04 08:53:55;;;;;;;62.53;35.00;;;;;;;;;;5034700;28;20181;-79
2022/12/04 08:56:22;;;;;;;60.37;35.87;;;;;;;;;;5026052;28;20188;-80
2022/12/04 08:58:48;;;;;;;57.87;34.17;;;;;;;;;;5021344;28;20234;-79
2022/12/04 09:01:14;;;;;;;55.43;33.47;;;;;;;;;;5026807;28;20260;-80
2022/12/04 09:03:40;;;;;;;57.20;33.50;;;;;;;;;;5036900;28;20183;-79
2022/12/04 09:06:07;;;;;;;55.20;33.10;;;;;;;;;;5036367;28;20196;-79
2022/12/04 09:08:33;;;;;;;57.50;32.83;;;;;;;;;;5036756;28;20255;-79
2022/12/04 09:11:04;;;;;;;58.03;33.73;;;;;;;;;;5036811;28;20177;-79
2022/12/04 09:13:30;;;;;;;57.60;32.30;;;;;;;;;;5016266;28;20188;-79
2022/12/04 09:15:56;;;;;;;58.00;34.03;;;;;;;;;;5024097;28;20224;-79
2022/12/04 09:18:22;;;;;;;54.37;32.60;;;;;;;;;;5019037;28;20208;-79
2022/12/04 09:20:55;;;;;;;53.80;31.57;;;;;;;;;;5018153;28;20303;-80
2022/12/04 09:23:21;;;;;;;51.90;31.30;;;;;;;;;;5019160;28;20193;-80
2022/12/04 09:25:48;;;;;;;48.80;31.00;;;;;;;;;;5018447;28;20211;-80
2022/12/04 09:28:14;;;;;;;50.80;30.53;;;;;;;;;;5016811;28;20224;-80
2022/12/04 09:30:39;;;;;;;55.87;30.07;;;;;;;;;;5002123;28;20259;-80
2022/12/04 09:33:05;;;;;;;48.90;28.07;;;;;;;;;;5015443;28;20196;-80
2022/12/04 09:35:32;;;;;;;46.13;27.43;;;;;;;;;;4999366;28;20248;-79
2022/12/04 09:37:58;;;;;;;44.20;26.33;;;;;;;;;;4985067;28;20193;-79
2022/12/04 09:40:26;;;;;;;41.97;25.40;;;;;;;;;;5010955;28;20216;-79
2022/12/04 09:43:06;;;;;;;44.60;26.00;;;;;;;;;;5019010;28;20212;-79
2022/12/04 09:45:40;;;;;;;41.00;25.03;;;;;;;;;;5018218;28;20184;-79
2022/12/04 09:48:09;;;;;;;38.40;23.47;;;;;;;;;;5035864;28;20172;-79
2022/12/04 09:50:39;;;;;;;38.83;23.53;;;;;;;;;;5035428;28;20180;-79
2022/12/04 09:53:09;;;;;;;37.90;21.63;;;;;;;;;;5022897;28;20188;-79
2022/12/04 09:55:38;;;;;;;34.63;22.97;;;;;;;;;;5035346;28;20168;-79
2022/12/04 09:58:06;;;;;;;31.77;21.17;;;;;;;;;;5009261;28;20196;-79
2022/12/04 10:00:36;;;;;;;34.37;21.07;;;;;;;;;;4998692;28;20213;-79
2022/12/04 10:03:04;;;;;;;31.67;20.90;;;;;;;;;;4998389;28;20177;-79
2022/12/04 10:05:49;;;;;;;35.97;20.27;;;;;;;;;;5015204;28;20178;-80
2022/12/04 10:08:15;;;;;;;32.83;20.93;;;;;;;;;;5016006;28;20170;-79
2022/12/04 10:10:42;;;;;;;30.73;19.23;;;;;;;;;;5014311;28;20219;-79
2022/12/04 10:13:25;;;;;;;30.37;19.43;;;;;;;;;;5023821;28;20272;-79
2022/12/04 10:16:08;;;;;;;31.50;19.87;;;;;;;;;;5033788;28;20263;-79
2022/12/04 10:18:34;;;;;;;28.47;19.43;;;;;;;;;;5018288;28;20180;-80
2022/12/04 10:21:12;;;;;;;27.87;18.43;;;;;;;;;;5035042;28;20208;-80
2022/12/04 10:23:57;;;;;;;28.97;19.17;;;;;;;;;;5015455;28;20176;-80
2022/12/04 10:26:26;;;;;;;32.00;18.87;;;;;;;;;;5014539;28;20228;-80
2022/12/04 10:28:57;;;;;;;28.67;18.73;;;;;;;;;;5016491;28;20220;-80
2022/12/04 10:31:24;;;;;;;28.17;18.73;;;;;;;;;;5000795;28;20185;-80
2022/12/04 10:33:52;;;;;;;25.47;18.27;;;;;;;;;;5017251;28;20208;-80
2022/12/04 10:36:20;;;;;;;26.80;18.33;;;;;;;;;;5017495;28;20227;-81
2022/12/04 10:38:51;;;;;;;26.97;18.13;;;;;;;;;;5017251;28;20203;-80
2022/12/04 10:41:17;;;;;;;28.07;17.87;;;;;;;;;;5012313;28;20239;-80
2022/12/04 10:43:44;;;;;;;28.33;18.87;;;;;;;;;;5029830;28;20193;-80
2022/12/04 10:46:19;;;;;;;26.83;18.37;;;;;;;;;;5023892;28;20300;-80
2022/12/04 10:48:47;;;;;;;28.03;18.20;;;;;;;;;;5030645;28;20176;-79
2022/12/04 10:51:17;;;;;;;26.20;18.47;;;;;;;;;;5034805;28;20176;-79
2022/12/04 10:53:44;;;;;;;27.20;18.57;;;;;;;;;;5032965;28;20189;-79
2022/12/04 10:56:12;;;;;;;26.33;18.07;;;;;;;;;;5000809;28;20196;-79
2022/12/04 10:58:38;;;;;;;23.87;17.53;;;;;;;;;;5016970;28;20181;-79
2022/12/04 11:01:11;;;;;;;28.47;18.60;;;;;;;;;;5017146;28;20207;-79
2022/12/04 11:03:38;;;;;;;24.90;17.63;;;;;;;;;;4997122;28;20331;-79
2022/12/04 11:06:05;;;;;;;27.13;18.10;;;;;;;;;;5002521;28;20231;-79
2022/12/04 11:08:42;;;;;;;28.57;18.07;;;;;;;;;;4997655;28;20207;-79
2022/12/04 11:11:10;;;;;;;25.97;17.80;;;;;;;;;;5013708;28;20243;-79
2022/12/04 11:13:36;;;;;;;24.87;17.50;;;;;;;;;;5016636;28;20208;-79
2022/12/04 11:16:03;;;;;;;25.53;17.43;;;;;;;;;;5016306;28;20219;-79
2022/12/04 11:18:30;;;;;;;25.47;17.43;;;;;;;;;;5034280;28;20173;-79
2022/12/04 11:20:59;;;;;;;26.23;18.17;;;;;;;;;;5017173;28;20208;-80
2022/12/04 11:23:26;;;;;;;25.63;17.37;;;;;;;;;;5013325;28;20180;-80
2022/12/04 11:25:54;;;;;;;26.37;18.43;;;;;;;;;;5016639;28;20176;-80
2022/12/04 11:28:25;;;;;;;28.23;18.30;;;;;;;;;;5016966;28;20233;-80
2022/12/04 11:30:55;;;;;;;25.77;17.73;;;;;;;;;;5034437;28;20176;-80
2022/12/04 11:33:36;;;;;;;26.07;17.87;;;;;;;;;;5014427;28;20192;-80
2022/12/04 11:36:05;;;;;;;25.77;17.53;;;;;;;;;;5010261;28;20230;-80
2022/12/04 11:38:33;;;;;;;24.93;17.73;;;;;;;;;;5034215;28;20177;-80
2022/12/04 11:41:01;;;;;;;26.23;18.20;;;;;;;;;;5013338;28;20213;-80
2022/12/04 11:43:28;;;;;;;25.87;18.50;;;;;;;;;;5014471;28;20173;-80
2022/12/04 11:45:54;;;;;;;25.13;17.67;;;;;;;;;;5009366;28;20187;-79
2022/12/04 11:48:21;;;;;;;24.20;17.60;;;;;;;;;;5031061;28;20188;-80
2022/12/04 11:50:50;;;;;;;25.10;18.10;;;;;;;;;;4996888;28;20217;-80
2022/12/04 11:53:35;;;;;;;27.23;18.57;;;;;;;;;;5030713;28;20184;-80
2022/12/04 11:56:04;;;;;;;26.00;18.80;;;;;;;;;;5033393;28;20227;-80
2022/12/04 11:58:33;;;;;;;28.30;18.20;;;;;;;;;;5010478;28;20185;-80
2022/12/04 12:01:17;;;;;;;27.30;18.17;;;;;;;;;;5017486;28;20204;-80
2022/12/04 12:03:50;;;;;;;25.17;18.27;;;;;;;;;;5033985;28;20177;-79
2022/12/04 12:06:16;;;;;;;26.00;18.13;;;;;;;;;;4997468;28;20201;-79
2022/12/04 12:08:54;;;;;;;27.37;18.33;;;;;;;;;;4997219;28;20235;-79
2022/12/04 12:11:35;;;;;;;24.57;17.87;;;;;;;;;;4997185;28;20181;-79
2022/12/04 12:14:20;;;;;;;24.17;17.37;;;;;;;;;;5013507;28;20185;-79
2022/12/04 12:16:52;;;;;;;25.00;17.50;;;;;;;;;;4996498;28;20182;-79
2022/12/04 12:19:21;;;;;;;25.87;18.17;;;;;;;;;;5016974;28;20184;-79
2022/12/04 12:21:56;;;;;;;25.43;18.27;;;;;;;;;;5026687;28;20217;-79
2022/12/04 12:24:36;;;;;;;24.30;17.37;;;;;;;;;;5014299;28;20219;-80
2022/12/04 12:27:05;;;;;;;25.77;17.80;;;;;;;;;;5045880;22;20235;-79
2022/12/04 12:29:49;;;;;;;24.63;18.10;;;;;;;;;;5017205;28;20192;-78
2022/12/04 12:32:36;;;;;;;24.40;17.83;;;;;;;;;;5016999;28;20199;-78
2022/12/04 12:35:02;;;;;;;25.43;17.60;;;;;;;;;;5019199;28;20184;-78
2022/12/04 12:37:34;;;;;;;24.87;16.93;;;;;;;;;;5019011;28;20239;-78
2022/12/04 12:40:13;;;;;;;26.60;18.07;;;;;;;;;;5034354;28;20181;-78
2022/12/04 12:43:00;;;;;;;24.83;17.17;;;;;;;;;;5020703;28;20208;-78
2022/12/04 12:45:32;;;;;;;22.20;16.03;;;;;;;;;;5034475;28;20186;-78
2022/12/04 12:48:00;;;;;;;23.00;16.67;;;;;;;;;;5019520;28;20203;-78
2022/12/04 12:50:37;;;;;;;24.57;16.53;;;;;;;;;;5018771;28;20311;-78
2022/12/04 12:53:15;;;;;;;23.73;16.27;;;;;;;;;;5016965;28;20204;-78
2022/12/04 12:55:47;;;;;;;23.67;16.57;;;;;;;;;;5015196;28;20195;-80
2022/12/04 12:58:32;;;;;;;23.77;16.80;;;;;;;;;;5020607;28;20187;-81
2022/12/04 13:01:01;;;;;;;23.27;16.93;;;;;;;;;;5021277;28;20266;-81
2022/12/04 13:03:40;;;;;;;23.80;17.10;;;;;;;;;;5035536;28;20207;-81
2022/12/04 13:06:09;;;;;;;24.50;16.63;;;;;;;;;;5019050;28;20173;-81
2022/12/04 13:08:44;;;;;;;22.87;15.67;;;;;;;;;;5015453;28;20174;-81
2022/12/04 13:11:19;;;;;;;24.80;17.40;;;;;;;;;;5017141;28;20195;-84
2022/12/04 13:13:47;;;;;;;24.50;16.97;;;;;;;;;;5018591;28;20234;-84
2022/12/04 13:16:16;;;;;;;21.90;16.17;;;;;;;;;;5018715;28;20266;-84
2022/12/04 13:18:49;;;;;;;26.77;17.27;;;;;;;;;;5008980;28;20254;-84
2022/12/04 13:21:28;;;;;;;24.93;17.70;;;;;;;;;;5018429;28;20215;-84
2022/12/04 13:24:13;;;;;;;25.80;18.17;;;;;;;;;;5018441;28;20180;-83
2022/12/04 13:26:39;;;;;;;25.43;17.90;;;;;;;;;;5016468;28;20231;-84
2022/12/04 13:29:17;;;;;;;24.67;16.93;;;;;;;;;;5036189;28;20251;-81
2022/12/04 13:31:59;;;;;;;26.30;17.40;;;;;;;;;;5014135;28;20255;-81
2022/12/04 13:34:25;;;;;;;26.17;18.43;;;;;;;;;;4998724;28;20259;-81
2022/12/04 13:36:57;;;;;;;27.37;18.17;;;;;;;;;;5008866;28;20192;-81
2022/12/04 13:39:23;;;;;;;26.60;18.63;;;;;;;;;;5016601;28;20220;-81
2022/12/04 13:41:57;;;;;;;26.63;18.87;;;;;;;;;;5017448;28;20238;-81
2022/12/04 13:44:25;;;;;;;28.33;19.13;;;;;;;;;;5018252;28;20171;-84
2022/12/04 13:46:59;;;;;;;27.00;18.60;;;;;;;;;;5018204;28;20177;-83
2022/12/04 13:49:25;;;;;;;29.23;18.53;;;;;;;;;;5017959;28;20255;-84
2022/12/04 13:51:52;;;;;;;29.47;19.77;;;;;;;;;;5017574;28;20250;-84
2022/12/04 13:54:44;;;;;;;29.60;20.30;;;;;;;;;;5001031;28;20216;-83
2022/12/04 13:57:16;;;;;;;30.27;20.03;;;;;;;;;;5011953;28;20189;-83
2022/12/04 13:59:43;;;;;;;31.43;21.07;;;;;;;;;;5017222;28;20180;-84
2022/12/04 14:02:18;;;;;;;27.80;19.70;;;;;;;;;;5014713;28;20298;-84
2022/12/04 14:04:45;;;;;;;30.20;20.80;;;;;;;;;;5013588;28;20192;-84
2022/12/04 14:07:39;;;;;;;29.60;20.40;;;;;;;;;;4997755;28;20266;-84
2022/12/04 14:10:25;;;;;;;30.30;21.40;;;;;;;;;;5027713;28;20224;-84
2022/12/04 14:12:57;;;;;;;31.67;21.17;;;;;;;;;;5019899;28;20275;-84
2022/12/04 14:15:25;;;;;;;33.53;22.20;;;;;;;;;;5018093;28;20188;-84
2022/12/04 14:17:59;;;;;;;34.77;22.07;;;;;;;;;;5017006;28;20207;-81
2022/12/04 14:20:27;;;;;;;35.83;22.93;;;;;;;;;;5021957;28;20201;-81
2022/12/04 14:22:53;;;;;;;33.93;22.63;;;;;;;;;;5022491;28;20181;-81
2022/12/04 14:25:19;;;;;;;33.63;22.87;;;;;;;;;;5009863;28;20224;-81
2022/12/04 14:27:50;;;;;;;39.33;24.33;;;;;;;;;;5034605;28;20228;-81
2022/12/04 14:30:19;;;;;;;37.03;24.53;;;;;;;;;;5033922;28;20188;-81
2022/12/04 14:32:46;;;;;;;36.67;24.53;;;;;;;;;;5033728;28;20221;-81
2022/12/04 14:35:14;;;;;;;36.03;25.27;;;;;;;;;;5017183;28;20279;-84
2022/12/04 14:37:41;;;;;;;35.67;24.43;;;;;;;;;;5031417;28;20172;-84
2022/12/04 14:40:15;;;;;;;36.13;23.93;;;;;;;;;;5034825;28;20181;-84